KTNU/TNU METAR and TAF weather

Enter ICAO airport designator
Station Type Date Time Source
KTNU METAR 2021/05/14 22:35 UTC NOAA

KTNU 142235Z AUTO 12005KT 10SM BKN070 13/12 A3015 RMK A01


Station Type Date Time Source
KTNU Decoded METAR 2021/05/14 22:35 UTC NOAA

Newton Municipal, IA, United States (KTNU) 41-41N 093-01W
May 14, 2021 - 06:35 PM EDT / 2021.05.14 2235 UTC
Wind: from the ESE (120 degrees) at 6 MPH (5 KT):0
Visibility: 10 mile(s):0
Sky conditions: mostly cloudy
Temperature: 55 F (13 C)
Dew Point: 53 F (12 C)
Relative Humidity: 93%
Pressure (altimeter): 30.15 in. Hg (1020 hPa)
ob: KTNU 142235Z AUTO 12005KT 10SM BKN070 13/12 A3015 RMK A01
cycle: 22

Station Type Date Time Source
KTNU TAF UTC NOAA

Error!

Example: see airport list